sensor_id;sensor_type;location;lat;lon;timestamp;pressure;altitude;pressure_sealevel;temperature;humidity
76808;BME280;65758;45.458;11.062;2023-05-07T00:01:22;100939.60;;;19.47;60.34
76808;BME280;65758;45.458;11.062;2023-05-07T00:03:48;100941.15;;;19.42;60.39
76808;BME280;65758;45.458;11.062;2023-05-07T00:06:15;100939.92;;;19.34;60.51
76808;BME280;65758;45.458;11.062;2023-05-07T00:08:42;100942.65;;;19.29;60.68
76808;BME280;65758;45.458;11.062;2023-05-07T00:11:09;100943.77;;;19.24;60.75
76808;BME280;65758;45.458;11.062;2023-05-07T00:13:35;100943.99;;;19.19;60.88
76808;BME280;65758;45.458;11.062;2023-05-07T00:16:03;100941.28;;;19.14;60.94
76808;BME280;65758;45.458;11.062;2023-05-07T00:18:30;100943.18;;;19.12;61.01
76808;BME280;65758;45.458;11.062;2023-05-07T00:20:57;100940.34;;;19.09;61.12
76808;BME280;65758;45.458;11.062;2023-05-07T00:23:25;100941.28;;;19.06;61.26
76808;BME280;65758;45.458;11.062;2023-05-07T00:25:52;100938.45;;;19.07;61.33
76808;BME280;65758;45.458;11.062;2023-05-07T00:28:18;100934.40;;;19.09;61.40
76808;BME280;65758;45.458;11.062;2023-05-07T00:30:45;100934.18;;;19.13;61.52
76808;BME280;65758;45.458;11.062;2023-05-07T00:33:12;100933.73;;;19.18;61.49
76808;BME280;65758;45.458;11.062;2023-05-07T00:35:39;100932.27;;;19.22;61.38
76808;BME280;65758;45.458;11.062;2023-05-07T00:38:06;100929.34;;;19.24;61.32
76808;BME280;65758;45.458;11.062;2023-05-07T00:40:32;100929.16;;;19.24;61.12
76808;BME280;65758;45.458;11.062;2023-05-07T00:42:59;100927.66;;;19.25;61.10
76808;BME280;65758;45.458;11.062;2023-05-07T00:45:27;100926.95;;;19.24;61.10
76808;BME280;65758;45.458;11.062;2023-05-07T00:47:56;100922.18;;;19.22;61.13
76808;BME280;65758;45.458;11.062;2023-05-07T00:50:24;100926.23;;;19.21;61.22
76808;BME280;65758;45.458;11.062;2023-05-07T00:52:52;100926.45;;;19.20;61.15
76808;BME280;65758;45.458;11.062;2023-05-07T00:55:19;100925.91;;;19.20;61.11
76808;BME280;65758;45.458;11.062;2023-05-07T00:57:46;100929.85;;;19.19;61.21
76808;BME280;65758;45.458;11.062;2023-05-07T01:00:13;100931.02;;;19.19;61.15
76808;BME280;65758;45.458;11.062;2023-05-07T01:02:41;100927.84;;;19.18;61.05
76808;BME280;65758;45.458;11.062;2023-05-07T01:05:11;100928.40;;;19.17;61.03
76808;BME280;65758;45.458;11.062;2023-05-07T01:07:40;100928.64;;;19.16;61.23
76808;BME280;65758;45.458;11.062;2023-05-07T01:10:08;100926.12;;;19.17;61.15
76808;BME280;65758;45.458;11.062;2023-05-07T01:12:37;100925.52;;;19.16;61.20
76808;BME280;65758;45.458;11.062;2023-05-07T01:15:07;100925.02;;;19.13;61.10
76808;BME280;65758;45.458;11.062;2023-05-07T01:17:41;100924.92;;;19.09;61.13
76808;BME280;65758;45.458;11.062;2023-05-07T01:20:18;100925.20;;;19.05;61.23
76808;BME280;65758;45.458;11.062;2023-05-07T01:22:45;100920.59;;;19.02;61.36
76808;BME280;65758;45.458;11.062;2023-05-07T01:25:13;100919.54;;;19.01;61.45
76808;BME280;65758;45.458;11.062;2023-05-07T01:27:43;100916.27;;;19.03;61.54
76808;BME280;65758;45.458;11.062;2023-05-07T01:30:10;100919.80;;;19.06;61.73
76808;BME280;65758;45.458;11.062;2023-05-07T01:32:42;100910.23;;;19.08;61.78
76808;BME280;65758;45.458;11.062;2023-05-07T01:35:13;100909.88;;;19.08;61.61
76808;BME280;65758;45.458;11.062;2023-05-07T01:37:42;100908.27;;;19.06;61.55
76808;BME280;65758;45.458;11.062;2023-05-07T01:40:09;100904.13;;;19.04;61.44
76808;BME280;65758;45.458;11.062;2023-05-07T01:42:36;100902.23;;;19.02;61.44
76808;BME280;65758;45.458;11.062;2023-05-07T01:45:04;100904.40;;;19.00;61.51
76808;BME280;65758;45.458;11.062;2023-05-07T01:47:32;100905.89;;;18.97;61.55
76808;BME280;65758;45.458;11.062;2023-05-07T01:49:59;100910.71;;;18.94;61.66
76808;BME280;65758;45.458;11.062;2023-05-07T01:52:27;100912.63;;;18.93;61.55
76808;BME280;65758;45.458;11.062;2023-05-07T01:54:54;100911.21;;;18.91;61.67
76808;BME280;65758;45.458;11.062;2023-05-07T01:57:21;100911.34;;;18.88;61.55
76808;BME280;65758;45.458;11.062;2023-05-07T01:59:47;100919.20;;;18.87;61.79
76808;BME280;65758;45.458;11.062;2023-05-07T02:02:14;100916.60;;;18.88;62.05
76808;BME280;65758;45.458;11.062;2023-05-07T02:04:43;100918.83;;;18.89;62.14
76808;BME280;65758;45.458;11.062;2023-05-07T02:07:10;100921.10;;;18.88;62.13
76808;BME280;65758;45.458;11.062;2023-05-07T02:09:37;100920.10;;;18.88;62.18
76808;BME280;65758;45.458;11.062;2023-05-07T02:12:04;100923.59;;;18.87;62.37
76808;BME280;65758;45.458;11.062;2023-05-07T02:14:31;100922.98;;;18.85;62.37
76808;BME280;65758;45.458;11.062;2023-05-07T02:16:58;100923.31;;;18.83;62.46
76808;BME280;65758;45.458;11.062;2023-05-07T02:19:25;100919.49;;;18.82;62.30
76808;BME280;65758;45.458;11.062;2023-05-07T02:21:51;100915.05;;;18.80;62.33
76808;BME280;65758;45.458;11.062;2023-05-07T02:24:19;100919.27;;;18.78;62.27
76808;BME280;65758;45.458;11.062;2023-05-07T02:26:46;100919.04;;;18.76;62.43
76808;BME280;65758;45.458;11.062;2023-05-07T02:29:13;100923.48;;;18.76;62.42
76808;BME280;65758;45.458;11.062;2023-05-07T02:31:39;100922.42;;;18.74;62.37
76808;BME280;65758;45.458;11.062;2023-05-07T02:34:06;100927.30;;;18.75;62.63
76808;BME280;65758;45.458;11.062;2023-05-07T02:36:33;100924.09;;;18.76;62.48
76808;BME280;65758;45.458;11.062;2023-05-07T02:39:04;100917.92;;;18.79;62.44
76808;BME280;65758;45.458;11.062;2023-05-07T02:41:30;100914.94;;;18.80;62.46
76808;BME280;65758;45.458;11.062;2023-05-07T02:43:57;100918.88;;;18.82;62.42
76808;BME280;65758;45.458;11.062;2023-05-07T02:46:25;100918.11;;;18.84;62.38
76808;BME280;65758;45.458;11.062;2023-05-07T02:48:58;100920.60;;;18.88;62.49
76808;BME280;65758;45.458;11.062;2023-05-07T02:51:25;100922.31;;;18.94;62.42
76808;BME280;65758;45.458;11.062;2023-05-07T02:53:55;100921.88;;;18.98;62.24
76808;BME280;65758;45.458;11.062;2023-05-07T02:56:22;100919.88;;;19.01;62.12
76808;BME280;65758;45.458;11.062;2023-05-07T02:58:49;100918.65;;;19.03;62.01
76808;BME280;65758;45.458;11.062;2023-05-07T03:01:16;100919.54;;;19.02;61.96
76808;BME280;65758;45.458;11.062;2023-05-07T03:04:09;100922.70;;;19.00;62.01
76808;BME280;65758;45.458;11.062;2023-05-07T03:06:37;100920.09;;;18.97;61.98
76808;BME280;65758;45.458;11.062;2023-05-07T03:09:03;100922.55;;;18.95;61.93
76808;BME280;65758;45.458;11.062;2023-05-07T03:11:30;100923.81;;;18.92;62.04
76808;BME280;65758;45.458;11.062;2023-05-07T03:13:57;100926.37;;;18.87;62.14
76808;BME280;65758;45.458;11.062;2023-05-07T03:16:24;100927.31;;;18.82;62.02
76808;BME280;65758;45.458;11.062;2023-05-07T03:18:53;100928.58;;;18.79;62.16
76808;BME280;65758;45.458;11.062;2023-05-07T03:21:20;100934.19;;;18.76;62.27
76808;BME280;65758;45.458;11.062;2023-05-07T03:23:47;100931.30;;;18.73;62.46
76808;BME280;65758;45.458;11.062;2023-05-07T03:26:13;100930.14;;;18.70;62.29
76808;BME280;65758;45.458;11.062;2023-05-07T03:28:40;100930.13;;;18.69;62.56
76808;BME280;65758;45.458;11.062;2023-05-07T03:31:10;100929.07;;;18.70;62.65
76808;BME280;65758;45.458;11.062;2023-05-07T03:33:47;100927.45;;;18.71;62.67
76808;BME280;65758;45.458;11.062;2023-05-07T03:36:15;100930.98;;;18.70;62.70
76808;BME280;65758;45.458;11.062;2023-05-07T03:38:42;100923.92;;;18.68;62.74
76808;BME280;65758;45.458;11.062;2023-05-07T03:41:09;100924.35;;;18.66;62.82
76808;BME280;65758;45.458;11.062;2023-05-07T03:43:35;100926.13;;;18.62;62.72
76808;BME280;65758;45.458;11.062;2023-05-07T03:46:05;100925.28;;;18.58;62.64
76808;BME280;65758;45.458;11.062;2023-05-07T03:48:32;100925.84;;;18.54;62.87
76808;BME280;65758;45.458;11.062;2023-05-07T03:50:59;100927.64;;;18.49;62.99
76808;BME280;65758;45.458;11.062;2023-05-07T03:53:29;100924.85;;;18.45;62.97
76808;BME280;65758;45.458;11.062;2023-05-07T03:55:56;100928.61;;;18.40;63.16
76808;BME280;65758;45.458;11.062;2023-05-07T03:58:23;100928.83;;;18.37;63.13
76808;BME280;65758;45.458;11.062;2023-05-07T04:00:50;100929.48;;;18.35;63.20
76808;BME280;65758;45.458;11.062;2023-05-07T04:03:21;100932.85;;;18.33;63.36
76808;BME280;65758;45.458;11.062;2023-05-07T04:05:48;100937.52;;;18.35;63.31
76808;BME280;65758;45.458;11.062;2023-05-07T04:08:15;100938.08;;;18.39;63.21
76808;BME280;65758;45.458;11.062;2023-05-07T04:10:45;100933.10;;;18.43;63.32
76808;BME280;65758;45.458;11.062;2023-05-07T04:13:12;100932.61;;;18.46;63.42
76808;BME280;65758;45.458;11.062;2023-05-07T04:15:40;100932.63;;;18.47;63.46
76808;BME280;65758;45.458;11.062;2023-05-07T04:18:08;100934.44;;;18.47;63.21
76808;BME280;65758;45.458;11.062;2023-05-07T04:20:36;100938.11;;;18.47;63.30
76808;BME280;65758;45.458;11.062;2023-05-07T04:23:04;100942.55;;;18.47;63.32
76808;BME280;65758;45.458;11.062;2023-05-07T04:25:31;100939.60;;;18.47;63.37
76808;BME280;65758;45.458;11.062;2023-05-07T04:28:05;100943.88;;;18.47;63.42
76808;BME280;65758;45.458;11.062;2023-05-07T04:30:32;100945.09;;;18.46;63.41
76808;BME280;65758;45.458;11.062;2023-05-07T04:33:01;100944.48;;;18.46;63.57
76808;BME280;65758;45.458;11.062;2023-05-07T04:35:29;100940.83;;;18.46;63.47
76808;BME280;65758;45.458;11.062;2023-05-07T04:37:56;100944.14;;;18.47;63.48
76808;BME280;65758;45.458;11.062;2023-05-07T04:40:23;100939.44;;;18.50;63.66
76808;BME280;65758;45.458;11.062;2023-05-07T04:42:50;100934.71;;;18.55;63.80
76808;BME280;65758;45.458;11.062;2023-05-07T04:45:17;100943.64;;;18.59;63.69
76808;BME280;65758;45.458;11.062;2023-05-07T04:47:44;100945.91;;;18.62;63.58
76808;BME280;65758;45.458;11.062;2023-05-07T04:50:12;100946.88;;;18.65;63.71
76808;BME280;65758;45.458;11.062;2023-05-07T04:52:39;100951.36;;;18.68;63.66
76808;BME280;65758;45.458;11.062;2023-05-07T04:55:07;100954.69;;;18.70;63.70
76808;BME280;65758;45.458;11.062;2023-05-07T04:57:37;100958.30;;;18.72;63.57
76808;BME280;65758;45.458;11.062;2023-05-07T05:00:07;100961.80;;;18.74;63.52
76808;BME280;65758;45.458;11.062;2023-05-07T05:02:41;100963.80;;;18.78;63.65
76808;BME280;65758;45.458;11.062;2023-05-07T05:05:08;100967.19;;;18.81;63.52
76808;BME280;65758;45.458;11.062;2023-05-07T05:07:35;100972.79;;;18.85;63.53
76808;BME280;65758;45.458;11.062;2023-05-07T05:10:02;100977.99;;;18.90;63.56
76808;BME280;65758;45.458;11.062;2023-05-07T05:12:30;100980.73;;;18.94;63.49
76808;BME280;65758;45.458;11.062;2023-05-07T05:14:57;100980.11;;;18.99;63.51
76808;BME280;65758;45.458;11.062;2023-05-07T05:17:24;100981.17;;;19.04;63.50
76808;BME280;65758;45.458;11.062;2023-05-07T05:19:51;100982.84;;;19.07;63.46
76808;BME280;65758;45.458;11.062;2023-05-07T05:22:18;100989.21;;;19.09;63.42
76808;BME280;65758;45.458;11.062;2023-05-07T05:24:45;100989.44;;;19.10;63.39
76808;BME280;65758;45.458;11.062;2023-05-07T05:27:12;100993.23;;;19.12;63.31
76808;BME280;65758;45.458;11.062;2023-05-07T05:29:39;100999.48;;;19.15;63.32
76808;BME280;65758;45.458;11.062;2023-05-07T05:32:06;100999.77;;;19.19;63.26
76808;BME280;65758;45.458;11.062;2023-05-07T05:34:33;101001.42;;;19.24;63.28
76808;BME280;65758;45.458;11.062;2023-05-07T05:37:00;101000.92;;;19.30;63.19
76808;BME280;65758;45.458;11.062;2023-05-07T05:39:27;101000.97;;;19.35;63.05
76808;BME280;65758;45.458;11.062;2023-05-07T05:41:54;101003.04;;;19.40;63.01
76808;BME280;65758;45.458;11.062;2023-05-07T05:44:21;100999.39;;;19.47;62.88
76808;BME280;65758;45.458;11.062;2023-05-07T05:46:48;100997.16;;;19.55;62.80
76808;BME280;65758;45.458;11.062;2023-05-07T05:49:16;100996.48;;;19.63;62.55
76808;BME280;65758;45.458;11.062;2023-05-07T05:51:44;100996.64;;;19.69;62.49
76808;BME280;65758;45.458;11.062;2023-05-07T05:54:11;100994.52;;;19.75;62.44
76808;BME280;65758;45.458;11.062;2023-05-07T05:56:38;100990.98;;;19.78;62.27
76808;BME280;65758;45.458;11.062;2023-05-07T05:59:06;100987.27;;;19.83;62.23
76808;BME280;65758;45.458;11.062;2023-05-07T06:01:33;100994.42;;;19.89;62.08
76808;BME280;65758;45.458;11.062;2023-05-07T06:04:01;100998.56;;;19.93;61.90
76808;BME280;65758;45.458;11.062;2023-05-07T06:06:28;100997.62;;;19.98;61.82
76808;BME280;65758;45.458;11.062;2023-05-07T06:08:55;100998.58;;;20.04;61.68
76808;BME280;65758;45.458;11.062;2023-05-07T06:11:25;100999.96;;;20.10;61.62
76808;BME280;65758;45.458;11.062;2023-05-07T06:13:52;101005.71;;;20.16;61.53
76808;BME280;65758;45.458;11.062;2023-05-07T06:16:19;101006.30;;;20.23;61.46
76808;BME280;65758;45.458;11.062;2023-05-07T06:18:46;101007.12;;;20.30;61.26
76808;BME280;65758;45.458;11.062;2023-05-07T06:21:14;101009.27;;;20.37;61.08
76808;BME280;65758;45.458;11.062;2023-05-07T06:23:41;101007.56;;;20.45;60.84
76808;BME280;65758;45.458;11.062;2023-05-07T06:26:09;101005.85;;;20.54;60.50
76808;BME280;65758;45.458;11.062;2023-05-07T06:28:39;101003.70;;;20.60;60.40
76808;BME280;65758;45.458;11.062;2023-05-07T06:33:40;101002.00;;;20.82;59.87
76808;BME280;65758;45.458;11.062;2023-05-07T06:36:07;100999.05;;;20.98;59.69
76808;BME280;65758;45.458;11.062;2023-05-07T06:38:34;101002.37;;;21.17;59.44
76808;BME280;65758;45.458;11.062;2023-05-07T06:41:01;101001.77;;;21.35;58.57
76808;BME280;65758;45.458;11.062;2023-05-07T06:43:28;101000.98;;;21.56;58.63
76808;BME280;65758;45.458;11.062;2023-05-07T06:46:15;101002.32;;;21.83;58.18
76808;BME280;65758;45.458;11.062;2023-05-07T06:48:42;101003.77;;;22.09;57.74
76808;BME280;65758;45.458;11.062;2023-05-07T06:51:09;101003.83;;;22.32;57.30
76808;BME280;65758;45.458;11.062;2023-05-07T06:53:36;101007.20;;;22.53;56.72
76808;BME280;65758;45.458;11.062;2023-05-07T06:56:03;101010.83;;;22.67;56.13
76808;BME280;65758;45.458;11.062;2023-05-07T06:58:30;101010.54;;;22.81;55.65
76808;BME280;65758;45.458;11.062;2023-05-07T07:00:57;101011.34;;;22.91;54.78
76808;BME280;65758;45.458;11.062;2023-05-07T07:03:24;101010.36;;;22.99;54.55
76808;BME280;65758;45.458;11.062;2023-05-07T07:05:54;101002.95;;;23.10;54.13
76808;BME280;65758;45.458;11.062;2023-05-07T07:08:22;101002.41;;;23.19;54.04
76808;BME280;65758;45.458;11.062;2023-05-07T07:10:49;100998.65;;;23.23;53.61
76808;BME280;65758;45.458;11.062;2023-05-07T07:13:16;100993.64;;;23.25;53.25
76808;BME280;65758;45.458;11.062;2023-05-07T07:15:43;100997.67;;;23.27;53.03
76808;BME280;65758;45.458;11.062;2023-05-07T07:18:10;100999.77;;;23.24;52.49
76808;BME280;65758;45.458;11.062;2023-05-07T07:20:37;101001.73;;;23.18;52.39
76808;BME280;65758;45.458;11.062;2023-05-07T07:23:06;101002.39;;;23.22;52.20
76808;BME280;65758;45.458;11.062;2023-05-07T07:25:33;101000.77;;;23.23;52.14
76808;BME280;65758;45.458;11.062;2023-05-07T07:28:00;101002.19;;;23.32;52.57
76808;BME280;65758;45.458;11.062;2023-05-07T07:30:27;100998.27;;;23.38;52.41
76808;BME280;65758;45.458;11.062;2023-05-07T07:32:54;100995.71;;;23.55;52.37
76808;BME280;65758;45.458;11.062;2023-05-07T07:35:22;100992.09;;;23.72;52.21
76808;BME280;65758;45.458;11.062;2023-05-07T07:37:51;100991.45;;;23.92;51.86
76808;BME280;65758;45.458;11.062;2023-05-07T07:40:19;100993.05;;;24.17;51.44
76808;BME280;65758;45.458;11.062;2023-05-07T07:42:46;100991.95;;;24.43;50.98
76808;BME280;65758;45.458;11.062;2023-05-07T07:45:13;100990.00;;;24.64;50.46
76808;BME280;65758;45.458;11.062;2023-05-07T07:47:43;100987.45;;;24.84;50.15
76808;BME280;65758;45.458;11.062;2023-05-07T07:50:11;100982.73;;;25.00;49.93
76808;BME280;65758;45.458;11.062;2023-05-07T07:52:50;100986.11;;;25.10;49.61
76808;BME280;65758;45.458;11.062;2023-05-07T07:55:19;100988.63;;;25.13;49.49
76808;BME280;65758;45.458;11.062;2023-05-07T07:57:50;100988.77;;;25.08;49.23
76808;BME280;65758;45.458;11.062;2023-05-07T08:00:17;100990.25;;;25.04;49.23
76808;BME280;65758;45.458;11.062;2023-05-07T08:02:46;100989.27;;;25.01;49.05
76808;BME280;65758;45.458;11.062;2023-05-07T08:05:19;100991.54;;;25.01;49.13
76808;BME280;65758;45.458;11.062;2023-05-07T08:07:47;100993.69;;;25.14;49.52
76808;BME280;65758;45.458;11.062;2023-05-07T08:10:23;101002.08;;;25.26;49.20
76808;BME280;65758;45.458;11.062;2023-05-07T08:12:55;100999.62;;;25.28;48.91
76808;BME280;65758;45.458;11.062;2023-05-07T08:15:22;101003.13;;;25.29;48.85
76808;BME280;65758;45.458;11.062;2023-05-07T08:17:50;100994.94;;;25.33;48.83
76808;BME280;65758;45.458;11.062;2023-05-07T08:20:17;101001.20;;;25.43;48.10
76808;BME280;65758;45.458;11.062;2023-05-07T08:22:44;101002.00;;;25.51;47.63
76808;BME280;65758;45.458;11.062;2023-05-07T08:25:11;101007.56;;;25.58;47.30
76808;BME280;65758;45.458;11.062;2023-05-07T08:27:38;101010.73;;;25.60;46.34
76808;BME280;65758;45.458;11.062;2023-05-07T08:30:06;101012.52;;;25.57;46.48
76808;BME280;65758;45.458;11.062;2023-05-07T08:32:33;101016.01;;;25.54;46.43
76808;BME280;65758;45.458;11.062;2023-05-07T08:35:00;101016.37;;;25.48;46.36
76808;BME280;65758;45.458;11.062;2023-05-07T08:37:26;101016.27;;;25.41;46.25
76808;BME280;65758;45.458;11.062;2023-05-07T08:39:54;101018.80;;;25.38;45.43
76808;BME280;65758;45.458;11.062;2023-05-07T08:42:23;101016.55;;;25.41;45.47
76808;BME280;65758;45.458;11.062;2023-05-07T08:44:51;101020.29;;;25.48;44.83
76808;BME280;65758;45.458;11.062;2023-05-07T08:47:22;101016.48;;;25.59;44.66
76808;BME280;65758;45.458;11.062;2023-05-07T08:49:50;101017.23;;;25.78;45.19
76808;BME280;65758;45.458;11.062;2023-05-07T08:52:17;101017.70;;;25.95;45.14
76808;BME280;65758;45.458;11.062;2023-05-07T08:54:47;101014.50;;;26.05;44.81
76808;BME280;65758;45.458;11.062;2023-05-07T08:57:14;101015.81;;;26.16;44.83
76808;BME280;65758;45.458;11.062;2023-05-07T08:59:42;101013.54;;;26.30;44.10
76808;BME280;65758;45.458;11.062;2023-05-07T09:02:10;101011.10;;;26.33;43.91
76808;BME280;65758;45.458;11.062;2023-05-07T09:04:38;101014.42;;;26.40;44.14
76808;BME280;65758;45.458;11.062;2023-05-07T09:07:05;101013.84;;;26.57;44.46
76808;BME280;65758;45.458;11.062;2023-05-07T09:09:34;101014.52;;;26.83;43.76
76808;BME280;65758;45.458;11.062;2023-05-07T09:12:01;101012.11;;;27.06;42.87
76808;BME280;65758;45.458;11.062;2023-05-07T09:14:32;101010.77;;;27.27;42.83
76808;BME280;65758;45.458;11.062;2023-05-07T09:16:59;101007.84;;;27.39;41.88
76808;BME280;65758;45.458;11.062;2023-05-07T09:19:27;101009.54;;;27.39;41.43
76808;BME280;65758;45.458;11.062;2023-05-07T09:21:59;101006.17;;;27.30;41.45
76808;BME280;65758;45.458;11.062;2023-05-07T09:24:29;101002.34;;;27.19;41.10
76808;BME280;65758;45.458;11.062;2023-05-07T09:27:01;101003.51;;;27.13;40.80
76808;BME280;65758;45.458;11.062;2023-05-07T09:29:29;101000.58;;;27.15;41.09
76808;BME280;65758;45.458;11.062;2023-05-07T09:31:57;100998.70;;;27.23;40.88
76808;BME280;65758;45.458;11.062;2023-05-07T09:34:24;101001.66;;;27.37;40.68
76808;BME280;65758;45.458;11.062;2023-05-07T09:36:51;100999.85;;;27.53;40.33
76808;BME280;65758;45.458;11.062;2023-05-07T09:39:18;101004.94;;;27.69;40.33
76808;BME280;65758;45.458;11.062;2023-05-07T09:41:46;101000.65;;;27.81;40.12
76808;BME280;65758;45.458;11.062;2023-05-07T09:44:20;101000.19;;;27.89;39.34
76808;BME280;65758;45.458;11.062;2023-05-07T09:46:53;100997.83;;;27.88;38.69
76808;BME280;65758;45.458;11.062;2023-05-07T09:49:29;100997.43;;;27.85;39.04
76808;BME280;65758;45.458;11.062;2023-05-07T09:52:01;100991.91;;;27.82;40.01
76808;BME280;65758;45.458;11.062;2023-05-07T09:54:30;100992.77;;;27.74;40.24
76808;BME280;65758;45.458;11.062;2023-05-07T09:57:01;100993.60;;;27.62;40.51
76808;BME280;65758;45.458;11.062;2023-05-07T09:59:31;100997.73;;;27.52;40.64
76808;BME280;65758;45.458;11.062;2023-05-07T10:02:00;100993.00;;;27.43;40.98
76808;BME280;65758;45.458;11.062;2023-05-07T10:04:31;100992.27;;;27.34;41.17
76808;BME280;65758;45.458;11.062;2023-05-07T10:06:59;100992.13;;;27.25;40.92
76808;BME280;65758;45.458;11.062;2023-05-07T10:09:26;100993.46;;;27.16;41.28
76808;BME280;65758;45.458;11.062;2023-05-07T10:11:54;100989.06;;;27.15;41.57
76808;BME280;65758;45.458;11.062;2023-05-07T10:14:21;100987.59;;;27.19;41.50
76808;BME280;65758;45.458;11.062;2023-05-07T10:16:48;100987.09;;;27.28;41.22
76808;BME280;65758;45.458;11.062;2023-05-07T10:19:16;100985.41;;;27.40;40.95
76808;BME280;65758;45.458;11.062;2023-05-07T10:21:55;100984.45;;;27.59;41.43
76808;BME280;65758;45.458;11.062;2023-05-07T10:24:31;100979.70;;;27.84;40.52
76808;BME280;65758;45.458;11.062;2023-05-07T10:27:00;100977.41;;;28.05;41.21
76808;BME280;65758;45.458;11.062;2023-05-07T10:34:46;100971.61;;;28.35;39.55
76808;BME280;65758;45.458;11.062;2023-05-07T10:37:15;100969.23;;;28.30;39.62
76808;BME280;65758;45.458;11.062;2023-05-07T10:39:43;100968.10;;;28.26;39.34
76808;BME280;65758;45.458;11.062;2023-05-07T10:42:11;100968.38;;;28.31;39.71
76808;BME280;65758;45.458;11.062;2023-05-07T10:44:41;100967.14;;;28.40;39.36
76808;BME280;65758;45.458;11.062;2023-05-07T10:47:13;100969.11;;;28.45;39.31
76808;BME280;65758;45.458;11.062;2023-05-07T10:52:23;100972.38;;;28.52;39.51
76808;BME280;65758;45.458;11.062;2023-05-07T10:58:24;100969.02;;;28.81;38.98
76808;BME280;65758;45.458;11.062;2023-05-07T11:01:04;100964.99;;;28.87;38.61
76808;BME280;65758;45.458;11.062;2023-05-07T11:04:14;100963.46;;;28.83;38.55
76808;BME280;65758;45.458;11.062;2023-05-07T11:07:29;100959.27;;;28.76;38.59
76808;BME280;65758;45.458;11.062;2023-05-07T11:10:07;100954.09;;;28.74;39.00
76808;BME280;65758;45.458;11.062;2023-05-07T11:15:37;100949.86;;;28.89;38.55
76808;BME280;65758;45.458;11.062;2023-05-07T11:18:13;100945.34;;;28.94;38.39
76808;BME280;65758;45.458;11.062;2023-05-07T11:21:01;100944.25;;;28.85;38.39
76808;BME280;65758;45.458;11.062;2023-05-07T11:26:30;100932.48;;;28.92;38.81
76808;BME280;65758;45.458;11.062;2023-05-07T11:28:58;100928.60;;;29.04;38.70
76808;BME280;65758;45.458;11.062;2023-05-07T11:31:27;100927.20;;;29.14;38.34
76808;BME280;65758;45.458;11.062;2023-05-07T11:33:57;100925.88;;;29.22;38.09
76808;BME280;65758;45.458;11.062;2023-05-07T11:36:24;100925.60;;;29.25;37.98
76808;BME280;65758;45.458;11.062;2023-05-07T11:38:52;100924.59;;;29.32;38.10
76808;BME280;65758;45.458;11.062;2023-05-07T11:41:19;100923.46;;;29.41;37.83
76808;BME280;65758;45.458;11.062;2023-05-07T11:43:56;100922.90;;;29.50;37.82
76808;BME280;65758;45.458;11.062;2023-05-07T11:46:23;100919.73;;;29.61;37.58
76808;BME280;65758;45.458;11.062;2023-05-07T11:48:50;100917.38;;;29.72;37.08
76808;BME280;65758;45.458;11.062;2023-05-07T11:51:23;100914.68;;;29.78;36.67
76808;BME280;65758;45.458;11.062;2023-05-07T11:53:50;100915.38;;;29.82;36.83
76808;BME280;65758;45.458;11.062;2023-05-07T11:56:18;100915.27;;;29.85;36.58
76808;BME280;65758;45.458;11.062;2023-05-07T11:58:46;100917.12;;;29.86;36.35
76808;BME280;65758;45.458;11.062;2023-05-07T12:01:14;100916.83;;;29.86;36.49
76808;BME280;65758;45.458;11.062;2023-05-07T12:03:43;100913.10;;;29.90;36.23
76808;BME280;65758;45.458;11.062;2023-05-07T12:06:15;100906.44;;;29.96;36.06
76808;BME280;65758;45.458;11.062;2023-05-07T12:08:44;100913.48;;;29.92;36.32
76808;BME280;65758;45.458;11.062;2023-05-07T12:11:22;100908.48;;;29.77;36.59
76808;BME280;65758;45.458;11.062;2023-05-07T12:13:49;100913.27;;;29.56;37.07
76808;BME280;65758;45.458;11.062;2023-05-07T12:16:17;100913.98;;;29.44;37.30
76808;BME280;65758;45.458;11.062;2023-05-07T12:18:44;100913.85;;;29.38;37.03
76808;BME280;65758;45.458;11.062;2023-05-07T12:21:11;100914.36;;;29.26;37.15
76808;BME280;65758;45.458;11.062;2023-05-07T12:23:39;100912.29;;;29.28;37.27
76808;BME280;65758;45.458;11.062;2023-05-07T12:26:06;100917.73;;;29.52;36.95
76808;BME280;65758;45.458;11.062;2023-05-07T12:28:38;100916.98;;;29.80;36.76
76808;BME280;65758;45.458;11.062;2023-05-07T12:31:05;100915.04;;;30.10;36.16
76808;BME280;65758;45.458;11.062;2023-05-07T12:33:32;100915.44;;;30.35;35.86
76808;BME280;65758;45.458;11.062;2023-05-07T12:36:03;100911.14;;;30.57;35.22
76808;BME280;65758;45.458;11.062;2023-05-07T12:38:35;100911.81;;;30.74;34.94
76808;BME280;65758;45.458;11.062;2023-05-07T12:41:03;100913.21;;;30.89;34.92
76808;BME280;65758;45.458;11.062;2023-05-07T12:43:29;100906.80;;;30.96;34.10
76808;BME280;65758;45.458;11.062;2023-05-07T12:45:57;100909.91;;;30.91;34.29
76808;BME280;65758;45.458;11.062;2023-05-07T12:48:26;100905.67;;;30.96;34.55
76808;BME280;65758;45.458;11.062;2023-05-07T12:50:57;100907.20;;;30.96;34.01
76808;BME280;65758;45.458;11.062;2023-05-07T12:53:25;100897.34;;;30.90;34.16
76808;BME280;65758;45.458;11.062;2023-05-07T12:55:54;100899.92;;;30.89;34.15
76808;BME280;65758;45.458;11.062;2023-05-07T12:58:30;100894.23;;;30.92;34.50
76808;BME280;65758;45.458;11.062;2023-05-07T13:00:58;100890.59;;;30.97;33.91
76808;BME280;65758;45.458;11.062;2023-05-07T13:03:34;100889.86;;;30.96;33.71
76808;BME280;65758;45.458;11.062;2023-05-07T13:06:03;100884.89;;;30.95;33.66
76808;BME280;65758;45.458;11.062;2023-05-07T13:08:32;100883.59;;;30.97;33.93